Time;durP1;ratioP1;P1;durP2;ratioP2;P2;SDS_P1;SDS_P2;PMS_P1;PMS_P2;Temp;Humidity;BMP_temperature;BMP_pressure;BME280_temperature;BME280_humidity;BME280_pressure;Samples;Min_cycle;Max_cycle;Signal;HPM_P1;HPM_P2
2022/12/19 00:02:16;;;;;;;31.20;15.90;;;;;;;-5.55;85.28;102761.43;102130;1313;81634;-58
2022/12/19 00:04:53;;;;;;;31.60;15.10;;;;;;;-5.54;85.35;102757.20;102070;1313;98256;-58
2022/12/19 00:07:29;;;;;;;33.30;14.50;;;;;;;-5.58;85.07;102750.26;102084;1309;87625;-58
2022/12/19 00:10:04;;;;;;;30.50;14.40;;;;;;;-5.56;85.19;102753.56;102083;1313;93609;-58
2022/12/19 00:12:38;;;;;;;29.80;13.30;;;;;;;-5.57;85.08;102756.04;102048;1310;82379;-58
2022/12/19 00:15:13;;;;;;;30.50;14.80;;;;;;;-5.55;85.10;102756.52;102070;1310;83518;-57
2022/12/19 00:17:49;;;;;;;30.30;14.80;;;;;;;-5.49;85.05;102749.39;102050;1313;96435;-57
2022/12/19 00:20:23;;;;;;;28.80;15.10;;;;;;;-5.46;85.02;102745.98;102071;1310;88064;-59
2022/12/19 00:23:01;;;;;;;28.80;14.30;;;;;;;-5.46;85.18;102749.69;102060;1310;94221;-59
2022/12/19 00:25:38;;;;;;;30.60;13.90;;;;;;;-5.49;85.06;102750.80;102093;1313;79851;-59
2022/12/19 00:28:12;;;;;;;28.50;14.20;;;;;;;-5.55;85.05;102749.51;102087;1313;83204;-58
2022/12/19 00:30:46;;;;;;;25.80;12.80;;;;;;;-5.65;84.80;102755.85;102066;1309;95264;-58
2022/12/19 00:33:19;;;;;;;;;;;;;;;-5.69;84.62;102766.29;102155;1313;88814;-58
2022/12/19 00:35:57;;;;;;;29.30;13.50;;;;;;;-5.73;84.69;102762.85;102111;1313;95103;-57
2022/12/19 00:38:32;;;;;;;29.40;14.00;;;;;;;-5.81;85.00;102763.52;102115;1311;80216;-59
2022/12/19 00:41:13;;;;;;;30.20;13.90;;;;;;;-5.85;84.91;102774.67;102146;1313;82146;-59
2022/12/19 00:43:47;;;;;;;26.30;12.30;;;;;;;-5.85;85.07;102770.82;102144;1310;98600;-59
2022/12/19 00:46:22;;;;;;;30.20;12.80;;;;;;;-5.85;84.75;102768.16;102168;1310;88692;-59
2022/12/19 00:48:58;;;;;;;28.00;13.30;;;;;;;-5.87;84.76;102772.96;102092;1310;94005;-58
2022/12/19 00:51:36;;;;;;;31.50;14.90;;;;;;;-5.87;84.87;102772.09;102291;1307;81276;-58
2022/12/19 00:54:12;;;;;;;26.40;12.60;;;;;;;-5.86;84.89;102774.70;102284;1310;82800;-58
2022/12/19 00:56:46;;;;;;;;;;;;;;;-5.89;84.67;102772.13;102315;1307;97486;-59
2022/12/19 00:59:20;;;;;;;28.00;13.10;;;;;;;-5.83;84.71;102764.27;102315;1306;87653;-59
2022/12/19 01:01:56;;;;;;;28.30;12.70;;;;;;;-5.78;84.84;102763.13;102223;1307;93232;-59
2022/12/19 01:04:30;;;;;;;25.50;12.50;;;;;;;-5.73;84.78;102755.31;102231;1307;81540;-59
2022/12/19 01:07:09;;;;;;;28.50;13.80;;;;;;;-5.72;85.03;102758.95;102257;1307;82312;-59
2022/12/19 01:09:45;;;;;;;27.50;14.10;;;;;;;-5.74;84.75;102766.37;102174;1310;96533;-58
2022/12/19 01:15:17;;;;;;;26.40;12.20;;;;;;;-5.77;84.63;102762.23;102246;1307;95482;-56
2022/12/19 01:17:54;;;;;;;31.30;15.10;;;;;;;-5.78;84.56;102755.92;102302;1307;79080;-57
2022/12/19 01:20:30;;;;;;;29.80;14.10;;;;;;;-5.84;84.55;102750.10;102347;1310;80815;-57
2022/12/19 01:23:08;;;;;;;27.10;13.00;;;;;;;-5.86;84.59;102744.16;102284;1307;97178;-58
2022/12/19 01:25:53;;;;;;;28.60;13.60;;;;;;;-5.90;84.78;102736.70;102289;1307;88933;-58
2022/12/19 01:28:28;;;;;;;28.80;13.90;;;;;;;-5.95;84.56;102732.95;102340;1307;94201;-59
2022/12/19 01:31:05;;;;;;;27.20;12.40;;;;;;;-6.01;84.81;102732.51;102314;1310;80576;-59
2022/12/19 01:33:43;;;;;;;28.70;15.40;;;;;;;-6.01;84.61;102735.50;102323;1306;81281;-59
2022/12/19 01:36:22;;;;;;;29.70;15.00;;;;;;;-6.09;84.56;102726.86;102276;1310;98419;-59
2022/12/19 01:38:58;;;;;;;30.80;15.20;;;;;;;-6.10;84.63;102718.83;102330;1307;88180;-58
2022/12/19 01:41:35;;;;;;;28.70;13.30;;;;;;;-6.14;84.78;102724.32;102228;1310;94315;-59
2022/12/19 01:44:12;;;;;;;27.60;13.10;;;;;;;-6.22;84.78;102725.16;102334;1306;82328;-57
2022/12/19 01:46:52;;;;;;;25.90;13.20;;;;;;;-6.26;84.96;102716.82;102336;1306;80834;-57
2022/12/19 01:49:34;;;;;;;30.60;15.00;;;;;;;-6.22;85.04;102718.86;102339;1307;97246;-57
2022/12/19 01:52:11;;;;;;;33.90;15.50;;;;;;;-6.17;84.91;102717.37;102303;1307;89157;-57
2022/12/19 01:54:45;;;;;;;35.20;14.60;;;;;;;-6.14;85.08;102722.58;102296;1307;92896;-57
2022/12/19 01:57:22;;;;;;;34.80;15.20;;;;;;;-6.15;84.79;102724.52;102283;1310;82308;-57
2022/12/19 02:00:00;;;;;;;29.20;14.40;;;;;;;-6.11;84.82;102723.23;102287;1310;80377;-57
2022/12/19 02:02:38;;;;;;;28.90;14.60;;;;;;;-6.10;84.87;102721.63;102269;1305;97719;-57
2022/12/19 02:05:15;;;;;;;37.10;16.50;;;;;;;-6.09;84.86;102716.70;102271;1310;87306;-58
2022/12/19 02:07:51;;;;;;;34.50;15.70;;;;;;;-6.10;84.72;102714.27;102250;1307;95279;-58
2022/12/19 02:10:27;;;;;;;35.20;14.60;;;;;;;-6.15;84.83;102713.48;102229;1310;79540;-58
2022/12/19 02:13:03;;;;;;;37.20;17.50;;;;;;;-6.25;84.68;102707.52;102308;1306;82934;-57
2022/12/19 02:15:51;;;;;;;36.60;15.10;;;;;;;-6.28;84.99;102706.02;102274;1307;97448;-57
2022/12/19 02:18:36;;;;;;;32.80;17.10;;;;;;;-6.35;84.90;102702.79;102328;1307;89446;-57
2022/12/19 02:21:39;;;;;;;36.00;17.60;;;;;;;-6.35;84.83;102694.38;102277;1310;94779;-57
2022/12/19 02:24:58;;;;;;;39.50;18.60;;;;;;;-6.36;84.74;102690.70;102349;1307;79761;-58
2022/12/19 02:28:23;;;;;;;39.20;18.10;;;;;;;-6.41;85.00;102694.29;102324;1307;83400;-57
2022/12/19 02:31:11;;;;;;;36.10;16.00;;;;;;;-6.47;85.06;102699.83;102322;1307;99281;-59
2022/12/19 02:33:54;;;;;;;36.30;16.30;;;;;;;-6.48;85.12;102689.16;102254;1307;88464;-58
2022/12/19 02:36:37;;;;;;;31.70;14.40;;;;;;;-6.49;85.14;102692.67;102228;1310;95213;-57
2022/12/19 02:39:17;;;;;;;36.80;16.00;;;;;;;-6.54;85.21;102699.08;102242;1307;82531;-57
2022/12/19 02:41:55;;;;;;;31.30;14.90;;;;;;;-6.60;84.88;102704.77;102295;1306;82000;-57
2022/12/19 02:44:36;;;;;;;28.30;14.20;;;;;;;-6.70;84.78;102697.75;102239;1306;98279;-59
2022/12/19 02:47:16;;;;;;;33.30;14.60;;;;;;;-6.74;85.05;102701.30;102280;1307;89205;-58
2022/12/19 02:49:51;;;;;;;28.80;14.20;;;;;;;-6.80;84.86;102698.43;102218;1307;94230;-57
2022/12/19 02:52:52;;;;;;;28.50;12.80;;;;;;;-6.87;84.75;102691.01;102271;1310;81811;-58
2022/12/19 02:55:28;;;;;;;34.00;14.10;;;;;;;-6.95;84.83;102688.50;102285;1310;82016;-59
2022/12/19 02:58:42;;;;;;;35.40;15.00;;;;;;;-7.01;84.94;102695.94;102342;1307;97982;-58
2022/12/19 03:01:37;;;;;;;30.20;14.80;;;;;;;-7.06;84.81;102689.02;102321;1310;89765;-58
2022/12/19 03:04:21;;;;;;;33.70;16.10;;;;;;;-7.12;84.81;102686.29;102316;1307;95383;-58
2022/12/19 03:07:04;;;;;;;25.90;11.50;;;;;;;-7.19;84.70;102691.83;102337;1306;82670;-58
2022/12/19 03:09:47;;;;;;;32.80;14.50;;;;;;;-7.27;84.73;102692.80;102297;1310;82763;-58
2022/12/19 03:12:28;;;;;;;30.70;14.40;;;;;;;-7.34;84.94;102689.23;102270;1306;99168;-58
2022/12/19 03:15:09;;;;;;;32.90;16.20;;;;;;;-7.38;84.92;102682.11;102290;1310;87732;-58
2022/12/19 03:17:43;;;;;;;35.90;15.30;;;;;;;-7.40;84.75;102675.82;102259;1310;95047;-59
2022/12/19 03:20:33;;;;;;;32.10;14.40;;;;;;;-7.49;84.80;102674.55;102290;1310;79237;-58
2022/12/19 03:23:13;;;;;;;34.80;15.50;;;;;;;-7.55;84.81;102679.71;102266;1310;81418;-58
2022/12/19 03:25:54;;;;;;;33.40;14.30;;;;;;;-7.58;84.67;102675.72;102265;1310;96651;-59
2022/12/19 03:28:35;;;;;;;33.30;15.20;;;;;;;-7.68;84.81;102676.02;102261;1310;86989;-58
2022/12/19 03:31:13;;;;;;;31.50;13.80;;;;;;;-7.77;84.86;102681.55;102259;1307;95487;-57
2022/12/19 03:33:50;;;;;;;36.60;15.90;;;;;;;-7.86;84.94;102675.00;102262;1310;80996;-58
2022/12/19 03:36:29;;;;;;;34.80;16.20;;;;;;;-7.88;84.90;102672.75;102249;1307;82410;-59
2022/12/19 03:39:07;;;;;;;35.00;16.90;;;;;;;-7.93;85.38;102676.29;102226;1313;98741;-57
2022/12/19 03:44:40;;;;;;;35.20;14.60;;;;;;;-7.96;85.55;102674.77;102269;1307;95767;-57
2022/12/19 03:47:22;;;;;;;41.70;17.90;;;;;;;-7.97;85.30;102671.45;102276;1309;82838;-57
2022/12/19 03:50:01;;;;;;;33.50;15.30;;;;;;;-7.98;85.23;102669.02;102348;1307;82676;-58
2022/12/19 03:52:45;;;;;;;36.40;17.00;;;;;;;-8.02;85.36;102670.45;102308;1310;98767;-58
2022/12/19 03:55:28;;;;;;;35.80;15.20;;;;;;;-8.08;85.36;102669.12;102312;1310;86757;-58
2022/12/19 03:58:09;;;;;;;36.00;16.20;;;;;;;-8.11;85.43;102662.86;102279;1307;94370;-57
2022/12/19 04:00:47;;;;;;;40.20;16.70;;;;;;;-8.08;85.79;102656.37;102212;1308;81245;-57
2022/12/19 04:03:22;;;;;;;35.70;14.50;;;;;;;-8.12;85.64;102649.06;102262;1310;80895;-58
2022/12/19 04:06:00;;;;;;;37.30;15.40;;;;;;;-8.12;85.66;102635.80;102225;1307;96615;-58
2022/12/19 04:08:36;;;;;;;35.90;16.30;;;;;;;-8.08;85.86;102633.63;102286;1310;88823;-57
2022/12/19 04:11:19;;;;;;;39.00;16.90;;;;;;;-8.06;85.99;102630.48;102287;1310;95181;-58
2022/12/19 04:14:01;;;;;;;42.50;17.60;;;;;;;-8.01;86.17;102625.87;102250;1307;82661;-56
2022/12/19 04:16:47;;;;;;;42.00;16.30;;;;;;;-8.00;86.10;102616.06;102249;1308;82363;-57
2022/12/19 04:19:26;;;;;;;38.30;16.10;;;;;;;-7.97;85.88;102614.28;102296;1306;96659;-58
2022/12/19 04:22:12;;;;;;;31.90;15.60;;;;;;;-7.98;85.96;102610.63;102281;1310;88292;-58
2022/12/19 04:24:56;;;;;;;30.80;13.30;;;;;;;-8.00;85.85;102616.24;102229;1307;94476;-58
2022/12/19 04:27:33;;;;;;;;;;;;;;;-8.00;86.04;102609.08;102303;1307;82545;-58
2022/12/19 04:30:12;;;;;;;38.50;16.50;;;;;;;-7.97;86.15;102599.08;102248;1311;82832;-57
2022/12/19 04:32:47;;;;;;;38.20;16.70;;;;;;;-7.92;86.31;102598.14;102323;1307;97015;-58
2022/12/19 04:35:21;;;;;;;33.20;14.20;;;;;;;-7.91;86.21;102594.44;102302;1307;86555;-58
2022/12/19 04:37:56;;;;;;;37.30;16.50;;;;;;;-7.92;86.31;102591.50;102271;1310;94030;-57
2022/12/19 04:40:34;;;;;;;36.30;17.20;;;;;;;-7.93;86.08;102584.52;102289;1306;81464;-57
2022/12/19 04:43:07;;;;;;;36.70;16.60;;;;;;;-8.00;86.10;102584.23;102266;1306;83409;-57
2022/12/19 04:45:45;;;;;;;41.40;16.80;;;;;;;-8.02;86.20;102583.92;102264;1310;97284;-57
2022/12/19 04:48:20;;;;;;;38.10;15.80;;;;;;;-8.02;86.16;102579.55;102292;1310;87487;-57
2022/12/19 04:50:56;;;;;;;34.70;17.10;;;;;;;-8.05;86.29;102573.48;102235;1310;95101;-57
2022/12/19 04:53:31;;;;;;;37.50;17.10;;;;;;;-8.05;86.35;102563.00;102275;1306;82371;-57
2022/12/19 04:56:09;;;;;;;32.30;14.50;;;;;;;-8.06;86.24;102557.41;102263;1307;82282;-57
2022/12/19 04:58:43;;;;;;;41.10;17.20;;;;;;;-8.13;86.44;102563.09;102276;1307;98321;-57
2022/12/19 05:01:18;;;;;;;37.70;16.30;;;;;;;-8.15;86.29;102561.38;102269;1307;89343;-57
2022/12/19 05:03:52;;;;;;;39.40;18.10;;;;;;;-8.15;86.34;102554.91;102262;1307;94479;-57
2022/12/19 05:06:31;;;;;;;39.20;17.10;;;;;;;-8.18;86.40;102558.26;102239;1306;82266;-57
2022/12/19 05:09:11;;;;;;;36.00;15.10;;;;;;;-8.21;86.35;102558.98;102303;1310;83097;-57
2022/12/19 05:11:48;;;;;;;41.30;17.90;;;;;;;-8.24;86.51;102558.15;102242;1310;97031;-57
2022/12/19 05:14:27;;;;;;;40.40;16.80;;;;;;;-8.25;86.25;102562.39;102287;1307;88168;-58
2022/12/19 05:17:02;;;;;;;34.40;16.80;;;;;;;-8.28;86.31;102564.35;102260;1310;94696;-58
2022/12/19 05:19:38;;;;;;;29.90;13.40;;;;;;;-8.31;86.42;102567.02;102255;1312;80853;-57
2022/12/19 05:22:15;;;;;;;37.80;15.20;;;;;;;-8.40;86.34;102571.11;102293;1307;82646;-57
2022/12/19 05:24:51;;;;;;;41.60;16.90;;;;;;;-8.46;86.25;102564.39;102324;1307;98678;-57
2022/12/19 05:27:28;;;;;;;44.10;17.60;;;;;;;-8.52;86.28;102565.84;102299;1310;88968;-58
2022/12/19 05:30:02;;;;;;;37.90;15.80;;;;;;;-8.51;86.47;102561.64;102334;1310;95287;-57
2022/12/19 05:32:40;;;;;;;37.40;16.20;;;;;;;-8.52;86.26;102564.79;102282;1310;81789;-57
2022/12/19 05:35:14;;;;;;;40.30;15.80;;;;;;;-8.52;86.23;102557.11;102281;1306;83211;-57
2022/12/19 05:37:48;;;;;;;33.50;14.90;;;;;;;-8.54;86.15;102556.60;102282;1307;97739;-58
2022/12/19 05:40:21;;;;;;;;;;;;;;;-8.59;86.06;102553.69;102303;1310;88548;-57
2022/12/19 05:42:55;;;;;;;37.10;16.50;;;;;;;-8.61;85.96;102548.64;102236;1310;94942;-57
2022/12/19 05:45:34;;;;;;;38.90;17.10;;;;;;;-8.65;85.96;102550.95;102242;1308;79929;-57
2022/12/19 05:48:09;;;;;;;36.80;17.00;;;;;;;-8.67;86.14;102547.13;102296;1307;82053;-58
2022/12/19 05:50:46;;;;;;;38.40;16.80;;;;;;;-8.68;86.02;102547.48;102290;1307;98863;-56
2022/12/19 05:53:26;;;;;;;40.10;16.80;;;;;;;-8.70;85.99;102543.14;102281;1310;88190;-57
2022/12/19 05:56:11;;;;;;;40.40;17.30;;;;;;;-8.68;85.94;102543.83;102233;1310;95036;-57
2022/12/19 05:58:50;;;;;;;41.70;17.60;;;;;;;-8.72;85.88;102549.45;102290;1306;80372;-56
2022/12/19 06:01:37;;;;;;;39.30;16.70;;;;;;;-8.72;86.02;102548.41;102276;1310;82175;-57
2022/12/19 06:04:17;;;;;;;39.40;15.80;;;;;;;-8.72;85.80;102553.81;102282;1307;98064;-55
2022/12/19 06:06:55;;;;;;;37.80;16.90;;;;;;;-8.79;85.86;102554.59;102213;1310;88339;-56
2022/12/19 06:09:33;;;;;;;42.10;17.80;;;;;;;-8.77;86.06;102554.75;102334;1307;95069;-57
2022/12/19 06:12:11;;;;;;;42.40;17.70;;;;;;;-8.77;85.95;102561.55;102003;1310;496093;-57
2022/12/19 06:14:49;;;;;;;40.80;17.30;;;;;;;-8.80;85.77;102571.19;102308;1307;82800;-56
2022/12/19 06:17:27;;;;;;;41.10;16.60;;;;;;;-8.82;85.75;102571.38;102227;1310;97982;-56
2022/12/19 06:20:04;;;;;;;44.80;18.30;;;;;;;-8.84;85.76;102569.48;102375;1306;87680;-56
2022/12/19 06:22:39;;;;;;;39.80;16.00;;;;;;;-8.86;85.63;102566.70;102313;1307;95828;-57
2022/12/19 06:25:23;;;;;;;43.30;17.60;;;;;;;-8.92;85.66;102570.26;102315;1306;81043;-57
2022/12/19 06:28:03;;;;;;;37.20;17.70;;;;;;;-8.97;85.75;102574.30;102305;1310;82571;-57
2022/12/19 06:30:39;;;;;;;43.70;18.50;;;;;;;-8.99;85.87;102570.48;102301;1306;99545;-57
2022/12/19 06:33:16;;;;;;;45.20;18.90;;;;;;;-8.99;85.93;102566.30;102331;1307;88378;-56
2022/12/19 06:35:56;;;;;;;43.40;19.30;;;;;;;-9.00;85.76;102562.45;102298;1307;94202;-56
2022/12/19 06:38:34;;;;;;;42.10;19.00;;;;;;;-8.99;85.90;102561.40;102325;1308;79625;-56
2022/12/19 06:44:06;;;;;;;43.40;19.40;;;;;;;-8.94;85.80;102548.44;102337;1310;99249;-55
2022/12/19 06:46:46;;;;;;;46.20;18.80;;;;;;;-8.97;85.79;102546.02;102251;1310;88487;-56
2022/12/19 06:49:22;;;;;;;39.60;18.10;;;;;;;-8.97;85.78;102546.73;102269;1310;95758;-58
2022/12/19 06:51:57;;;;;;;40.80;17.10;;;;;;;-8.95;85.64;102555.96;102298;1307;81778;-58
2022/12/19 06:54:33;;;;;;;42.60;18.90;;;;;;;-8.95;85.48;102564.51;102361;1310;83422;-58
2022/12/19 06:57:08;;;;;;;38.30;17.40;;;;;;;-8.98;85.56;102562.08;102323;1306;98659;-57
2022/12/19 06:59:46;;;;;;;42.20;17.90;;;;;;;-8.96;85.63;102561.55;102327;1310;86629;-56
2022/12/19 07:02:33;;;;;;;40.00;17.90;;;;;;;-8.93;85.53;102562.39;102350;1307;93020;-55
2022/12/19 07:05:12;;;;;;;39.90;18.60;;;;;;;-8.91;85.64;102567.10;102327;1307;81448;-56
2022/12/19 07:07:52;;;;;;;38.70;17.70;;;;;;;-8.88;85.57;102568.80;102215;1308;82230;-56
2022/12/19 07:10:29;;;;;;;42.00;17.40;;;;;;;-8.95;85.44;102567.13;102351;1306;97854;-57
2022/12/19 07:13:05;;;;;;;38.10;16.50;;;;;;;-8.93;85.43;102566.06;102410;1310;89884;-56
2022/12/19 07:15:40;;;;;;;42.70;18.10;;;;;;;-8.91;85.50;102564.66;102275;1309;93709;-56
2022/12/19 07:18:20;;;;;;;43.40;18.30;;;;;;;-8.82;85.45;102567.54;102284;1307;81889;-56
2022/12/19 07:20:54;;;;;;;38.80;16.40;;;;;;;-8.81;85.36;102565.08;102299;1310;79418;-57
2022/12/19 07:23:31;;;;;;;41.40;17.30;;;;;;;-8.81;85.37;102560.18;102333;1310;97820;-56
2022/12/19 07:26:07;;;;;;;42.60;17.90;;;;;;;-8.79;85.41;102560.35;102293;1307;88962;-57
2022/12/19 07:28:43;;;;;;;;;;;;;;;-8.78;85.28;102557.20;102365;1306;93907;-55
2022/12/19 07:31:17;;;;;;;42.40;18.70;;;;;;;-8.72;85.18;102552.77;102296;1310;80953;-55
2022/12/19 07:33:53;;;;;;;46.10;18.60;;;;;;;-8.65;85.08;102547.29;102272;1307;82573;-56
2022/12/19 07:36:29;;;;;;;42.80;18.70;;;;;;;-8.63;85.10;102549.71;102283;1307;97819;-57
2022/12/19 07:39:05;;;;;;;41.60;19.00;;;;;;;-8.57;85.02;102551.21;102336;1310;89009;-57
2022/12/19 07:41:41;;;;;;;41.50;17.80;;;;;;;-8.56;84.81;102551.03;102290;1307;95644;-57
2022/12/19 07:44:18;;;;;;;39.30;17.80;;;;;;;-8.49;84.90;102544.51;102269;1306;82976;-57
2022/12/19 07:46:53;;;;;;;39.00;17.90;;;;;;;-8.41;84.76;102536.55;102273;1309;80830;-57
2022/12/19 07:49:29;;;;;;;42.80;18.90;;;;;;;-8.31;84.87;102535.02;102294;1307;99038;-57
2022/12/19 07:52:04;;;;;;;42.10;18.10;;;;;;;-8.19;84.75;102536.95;102272;1307;87547;-57
2022/12/19 07:54:42;;;;;;;46.70;20.50;;;;;;;-8.11;84.66;102534.92;102268;1308;94781;-57
2022/12/19 07:57:19;;;;;;;38.70;18.40;;;;;;;-7.97;84.19;102525.66;102191;1310;79721;-56
2022/12/19 07:59:55;;;;;;;38.40;19.00;;;;;;;-7.92;84.23;102520.33;102274;1310;82339;-55
2022/12/19 08:02:29;;;;;;;36.30;16.50;;;;;;;-7.89;84.14;102524.86;102267;1308;99537;-55
2022/12/19 08:05:08;;;;;;;40.10;18.00;;;;;;;-7.87;84.05;102524.11;102309;1306;88287;-57
2022/12/19 08:07:42;;;;;;;37.80;17.90;;;;;;;-7.84;83.54;102527.04;102224;1313;94267;-58
2022/12/19 08:10:18;;;;;;;40.50;18.00;;;;;;;-7.78;83.76;102522.59;102253;1310;82027;-57
2022/12/19 08:12:55;;;;;;;39.50;17.60;;;;;;;-7.71;83.64;102514.28;102291;1307;80976;-57
2022/12/19 08:15:29;;;;;;;39.90;18.80;;;;;;;-7.64;83.36;102517.84;102251;1306;97320;-57
2022/12/19 08:18:04;;;;;;;38.20;18.80;;;;;;;-7.61;83.30;102516.75;102260;1307;87786;-56
2022/12/19 08:20:43;;;;;;;39.60;17.10;;;;;;;-7.59;83.33;102513.91;102335;1307;94127;-56
2022/12/19 08:23:22;;;;;;;33.50;16.10;;;;;;;-7.52;83.20;102512.41;102279;1310;78446;-56
2022/12/19 08:26:06;;;;;;;35.90;15.50;;;;;;;-7.45;83.01;102508.09;102359;1310;82752;-56
2022/12/19 08:28:41;;;;;;;35.60;16.70;;;;;;;-7.40;83.10;102500.48;102298;1310;98292;-56
2022/12/19 08:31:18;;;;;;;33.60;15.80;;;;;;;-7.26;82.90;102498.68;102299;1305;88830;-56
2022/12/19 08:33:56;;;;;;;37.70;17.70;;;;;;;-7.05;82.53;102491.16;102270;1307;95845;-58
2022/12/19 08:36:34;;;;;;;38.30;17.70;;;;;;;-6.74;81.89;102481.11;102295;1307;81876;-58
2022/12/19 08:39:10;;;;;;;32.00;16.60;;;;;;;-6.46;82.04;102474.43;102262;1307;82207;-56
2022/12/19 08:41:46;;;;;;;32.90;16.80;;;;;;;-6.41;81.42;102478.53;102241;1310;97673;-57
2022/12/19 08:44:21;;;;;;;32.40;15.80;;;;;;;-6.42;81.44;102478.91;102251;1306;87423;-55
2022/12/19 08:47:02;;;;;;;35.30;16.60;;;;;;;-6.43;81.46;102478.24;102179;1310;95336;-55
2022/12/19 08:49:38;;;;;;;30.40;16.00;;;;;;;-6.36;81.52;102475.81;102259;1306;78575;-56
2022/12/19 08:52:13;;;;;;;36.20;17.70;;;;;;;-6.26;81.45;102463.69;102265;1307;82578;-56
2022/12/19 08:54:51;;;;;;;34.20;17.00;;;;;;;-6.08;81.31;102455.92;102267;1306;98300;-55
2022/12/19 08:57:26;;;;;;;36.80;17.60;;;;;;;-5.72;81.00;102451.70;102276;1306;87219;-54
2022/12/19 09:00:04;;;;;;;32.50;16.90;;;;;;;-5.02;81.01;102442.23;102315;1306;94336;-56
2022/12/19 09:02:42;;;;;;;33.40;16.80;;;;;;;-4.34;79.22;102439.42;102297;1310;80643;-55
2022/12/19 09:05:19;;;;;;;33.00;16.60;;;;;;;-3.99;78.86;102435.02;102327;1307;80233;-54
2022/12/19 09:07:56;;;;;;;31.70;16.30;;;;;;;-3.79;77.39;102436.51;102318;1307;96854;-55
2022/12/19 09:10:38;;;;;;;31.70;16.80;;;;;;;-3.67;77.72;102437.52;102230;1306;88867;-55
2022/12/19 09:13:12;;;;;;;31.70;17.00;;;;;;;-3.52;77.35;102430.71;102271;1307;94936;-55
2022/12/19 09:15:47;;;;;;;30.60;15.90;;;;;;;-3.48;76.60;102424.73;102270;1310;79622;-55
2022/12/19 09:18:23;;;;;;;31.40;16.50;;;;;;;-3.63;76.79;102413.80;102224;1307;83033;-56
2022/12/19 09:21:02;;;;;;;30.00;16.40;;;;;;;-3.72;75.60;102409.86;102268;1308;97675;-58
2022/12/19 09:23:41;;;;;;;32.00;17.10;;;;;;;-3.74;75.88;102408.00;102282;1307;86946;-57
2022/12/19 09:26:17;;;;;;;31.70;17.20;;;;;;;-3.53;75.15;102402.89;102260;1307;94069;-57
2022/12/19 09:28:54;;;;;;;33.70;17.00;;;;;;;-3.28;75.64;102393.59;102231;1306;78456;-58
2022/12/19 09:31:31;;;;;;;31.70;17.70;;;;;;;-3.21;73.03;102393.31;102230;1307;81931;-59
2022/12/19 09:34:05;;;;;;;33.30;17.60;;;;;;;-3.02;73.57;102386.69;102250;1310;97371;-57
2022/12/19 09:36:41;;;;;;;30.50;17.40;;;;;;;-2.77;72.73;102375.21;102230;1306;88628;-57
2022/12/19 09:39:23;;;;;;;31.00;16.10;;;;;;;-2.46;72.87;102372.09;102152;1313;93839;-56
2022/12/19 09:42:18;;;;;;;28.50;16.30;;;;;;;-2.42;73.08;102359.73;102171;1310;78638;-56
2022/12/19 09:45:11;;;;;;;31.90;17.30;;;;;;;-1.64;71.77;102350.40;102178;1306;82991;-56
2022/12/19 09:47:55;;;;;;;32.60;18.30;;;;;;;-1.24;71.60;102347.98;102228;1307;97853;-57
2022/12/19 09:50:48;;;;;;;34.80;18.70;;;;;;;-0.57;70.01;102341.27;102210;1310;88320;-57
2022/12/19 09:53:29;;;;;;;30.90;17.70;;;;;;;-0.48;69.30;102338.67;102268;1307;95423;-58
2022/12/19 09:56:10;;;;;;;28.50;16.00;;;;;;;-0.35;69.16;102336.84;102234;1310;79807;-59
2022/12/19 09:58:52;;;;;;;31.90;18.60;;;;;;;-0.26;69.35;102331.48;102211;1307;80651;-57
2022/12/19 10:01:35;;;;;;;31.40;17.50;;;;;;;0.02;69.39;102319.65;102228;1306;98983;-56
2022/12/19 10:04:17;;;;;;;26.00;16.90;;;;;;;0.49;68.17;102315.66;102253;1307;89155;-58
2022/12/19 10:06:54;;;;;;;27.50;17.20;;;;;;;0.50;67.75;102312.23;102154;1310;93980;-57
2022/12/19 10:09:34;;;;;;;27.50;18.00;;;;;;;0.66;66.74;102306.12;102247;1310;79584;-57
2022/12/19 10:13:05;;;;;;;31.50;19.30;;;;;;;0.90;67.03;102296.29;102217;1310;83112;-57
2022/12/19 10:15:54;;;;;;;32.40;19.00;;;;;;;0.96;65.24;102285.18;102202;1307;97055;-56
2022/12/19 10:18:49;;;;;;;29.30;18.30;;;;;;;1.10;65.62;102284.75;102249;1307;88668;-57
2022/12/19 10:21:32;;;;;;;;;;;;;;;1.02;65.74;102286.77;102232;1307;92391;-57
2022/12/19 10:24:40;;;;;;;29.50;16.60;;;;;;;0.39;63.35;102284.42;102284;1307;81172;-56
2022/12/19 10:27:29;;;;;;;30.80;17.80;;;;;;;-0.68;64.21;102284.41;102242;1310;83711;-56
2022/12/19 10:30:21;;;;;;;33.60;18.90;;;;;;;-1.38;63.76;102277.05;102304;1310;98562;-56
2022/12/19 10:33:12;;;;;;;29.80;17.10;;;;;;;-1.78;64.15;102268.87;102369;1307;89425;-57
2022/12/19 10:35:52;;;;;;;28.40;14.60;;;;;;;-2.32;64.04;102262.13;102218;1310;95482;-58
2022/12/19 10:38:40;;;;;;;33.20;18.00;;;;;;;-3.00;63.60;102257.27;102220;1310;78093;-57
2022/12/19 10:41:21;;;;;;;37.30;17.70;;;;;;;-3.13;65.06;102251.57;102278;1310;81648;-57
2022/12/19 10:44:04;;;;;;;29.10;16.60;;;;;;;-3.36;65.26;102251.88;102251;1310;98575;-58
2022/12/19 10:46:45;;;;;;;33.80;17.00;;;;;;;-3.64;65.17;102254.86;102209;1306;88714;-58
2022/12/19 10:49:23;;;;;;;33.50;17.20;;;;;;;-3.89;65.50;102250.96;102238;1307;93956;-58
2022/12/19 10:52:08;;;;;;;32.30;17.40;;;;;;;-4.02;65.93;102241.08;102207;1307;79262;-57
2022/12/19 10:54:44;;;;;;;32.30;16.40;;;;;;;-4.14;66.57;102240.05;102267;1307;81481;-56
2022/12/19 10:57:29;;;;;;;33.80;16.60;;;;;;;-4.27;67.34;102246.79;102191;1310;98976;-56
2022/12/19 11:00:16;;;;;;;37.20;17.30;;;;;;;-4.40;67.01;102250.23;102259;1307;87267;-57
2022/12/19 11:03:13;;;;;;;34.10;18.00;;;;;;;-4.53;67.51;102245.55;102110;1313;93595;-57
2022/12/19 11:05:52;;;;;;;35.60;17.20;;;;;;;-4.59;67.07;102232.73;102139;1311;82351;-58
2022/12/19 11:08:31;;;;;;;36.20;18.30;;;;;;;-4.74;67.90;102223.38;102265;1306;83142;-58
2022/12/19 11:11:15;;;;;;;33.00;16.10;;;;;;;-4.79;67.95;102212.80;102208;1308;98214;-58
2022/12/19 11:13:50;;;;;;;30.70;14.70;;;;;;;-4.85;68.42;102213.85;102274;1311;87299;-57
2022/12/19 11:16:37;;;;;;;35.80;16.60;;;;;;;-4.84;68.88;102220.70;102380;1307;95332;-56
2022/12/19 11:19:29;;;;;;;34.00;16.80;;;;;;;-4.87;68.60;102220.08;102290;1310;79622;-58
2022/12/19 11:22:07;;;;;;;33.80;15.70;;;;;;;-4.89;68.92;102218.73;102228;1307;83245;-59
2022/12/19 11:24:49;;;;;;;34.50;16.40;;;;;;;-4.90;68.84;102207.36;102270;1306;98457;-59
2022/12/19 11:27:43;;;;;;;34.10;15.80;;;;;;;-4.95;69.33;102200.29;102245;1307;89183;-58
2022/12/19 11:30:30;;;;;;;36.10;17.00;;;;;;;-4.98;69.38;102203.56;102216;1307;94319;-57
2022/12/19 11:33:18;;;;;;;33.80;16.70;;;;;;;-5.02;69.18;102197.36;102255;1307;77694;-57
2022/12/19 11:35:55;;;;;;;34.40;15.70;;;;;;;-5.09;69.59;102190.38;102269;1307;80419;-58
2022/12/19 11:38:40;;;;;;;28.90;14.70;;;;;;;-5.20;69.00;102191.06;102215;1310;98233;-56
2022/12/19 11:41:21;;;;;;;31.90;16.10;;;;;;;-5.34;69.38;102188.69;102235;1307;88091;-56
2022/12/19 11:44:02;;;;;;;28.00;13.20;;;;;;;-5.33;69.69;102186.52;102186;1307;93022;-57
2022/12/19 11:46:45;;;;;;;30.70;15.30;;;;;;;-5.33;69.84;102186.20;102252;1310;80143;-58
2022/12/19 11:49:33;;;;;;;35.90;17.40;;;;;;;-5.37;70.05;102184.71;102242;1307;82351;-58
2022/12/19 11:52:22;;;;;;;34.70;17.10;;;;;;;-5.40;70.50;102185.69;102227;1306;99887;-58
2022/12/19 11:55:04;;;;;;;30.00;14.60;;;;;;;-5.45;69.88;102183.53;102232;1306;87346;-57
2022/12/19 11:57:43;;;;;;;33.70;15.80;;;;;;;-5.51;70.39;102175.31;102214;1306;94424;-57
2022/12/19 12:00:23;;;;;;;29.40;13.70;;;;;;;-5.57;70.64;102171.27;102271;1310;80438;-58
2022/12/19 12:03:35;;;;;;;33.30;15.00;;;;;;;-5.59;70.67;102165.02;102206;1308;81581;-58
2022/12/19 12:06:16;;;;;;;30.80;15.20;;;;;;;-5.57;71.06;102161.42;102258;1306;99399;-56
2022/12/19 12:09:04;;;;;;;34.20;14.00;;;;;;;-5.54;70.76;102149.94;102275;1310;87528;-57
2022/12/19 12:11:51;;;;;;;35.30;15.50;;;;;;;-5.55;70.95;102136.63;102212;1306;94583;-57